sensor_id;sensor_type;location;lat;lon;timestamp;temperature;humidity
29803;DHT22;16702;50.898;4.662;2024-02-15T00:01:37;13.40;99.90
29803;DHT22;16702;50.898;4.662;2024-02-15T00:04:35;13.40;99.90
29803;DHT22;16702;50.898;4.662;2024-02-15T00:07:42;13.40;99.90
29803;DHT22;16702;50.898;4.662;2024-02-15T00:10:26;13.40;99.90
29803;DHT22;16702;50.898;4.662;2024-02-15T00:13:26;13.40;99.90
29803;DHT22;16702;50.898;4.662;2024-02-15T00:16:19;13.40;99.90
29803;DHT22;16702;50.898;4.662;2024-02-15T00:20:28;13.40;99.90
29803;DHT22;16702;50.898;4.662;2024-02-15T00:22:12;13.50;99.90
29803;DHT22;16702;50.898;4.662;2024-02-15T00:25:06;13.50;99.90
29803;DHT22;16702;50.898;4.662;2024-02-15T00:27:54;13.40;99.90
29803;DHT22;16702;50.898;4.662;2024-02-15T00:32:45;13.40;99.90
29803;DHT22;16702;50.898;4.662;2024-02-15T00:33:55;13.40;99.90
29803;DHT22;16702;50.898;4.662;2024-02-15T00:37:39;13.40;99.90
29803;DHT22;16702;50.898;4.662;2024-02-15T00:40:35;13.40;99.90
29803;DHT22;16702;50.898;4.662;2024-02-15T00:44:38;13.40;99.90
29803;DHT22;16702;50.898;4.662;2024-02-15T00:46:32;13.50;99.90
29803;DHT22;16702;50.898;4.662;2024-02-15T00:49:17;13.40;99.90
29803;DHT22;16702;50.898;4.662;2024-02-15T00:52:15;13.50;99.90
29803;DHT22;16702;50.898;4.662;2024-02-15T00:55:34;13.40;99.90
29803;DHT22;16702;50.898;4.662;2024-02-15T00:58:41;13.50;99.90
29803;DHT22;16702;50.898;4.662;2024-02-15T01:01:37;13.50;99.90
29803;DHT22;16702;50.898;4.662;2024-02-15T01:04:39;13.50;99.90
29803;DHT22;16702;50.898;4.662;2024-02-15T01:07:34;13.50;99.90
29803;DHT22;16702;50.898;4.662;2024-02-15T01:10:13;13.40;99.90
29803;DHT22;16702;50.898;4.662;2024-02-15T01:12:49;13.50;99.90
29803;DHT22;16702;50.898;4.662;2024-02-15T01:15:27;13.50;99.90
29803;DHT22;16702;50.898;4.662;2024-02-15T01:18:24;13.50;99.90
29803;DHT22;16702;50.898;4.662;2024-02-15T01:21:14;13.50;99.90
29803;DHT22;16702;50.898;4.662;2024-02-15T01:23:54;13.50;99.90
29803;DHT22;16702;50.898;4.662;2024-02-15T01:26:38;13.50;99.90
29803;DHT22;16702;50.898;4.662;2024-02-15T01:30:03;13.50;99.90
29803;DHT22;16702;50.898;4.662;2024-02-15T01:32:34;13.50;99.90
29803;DHT22;16702;50.898;4.662;2024-02-15T01:35:42;13.40;99.90
29803;DHT22;16702;50.898;4.662;2024-02-15T01:38:32;13.50;99.90
29803;DHT22;16702;50.898;4.662;2024-02-15T01:41:18;13.50;99.90
29803;DHT22;16702;50.898;4.662;2024-02-15T01:44:04;13.50;99.90
29803;DHT22;16702;50.898;4.662;2024-02-15T01:47:14;13.50;99.90
29803;DHT22;16702;50.898;4.662;2024-02-15T01:50:11;13.50;99.90
29803;DHT22;16702;50.898;4.662;2024-02-15T01:53:10;13.50;99.90
29803;DHT22;16702;50.898;4.662;2024-02-15T01:56:17;13.50;99.90
29803;DHT22;16702;50.898;4.662;2024-02-15T01:59:51;13.50;99.90
29803;DHT22;16702;50.898;4.662;2024-02-15T02:02:48;13.50;99.90
29803;DHT22;16702;50.898;4.662;2024-02-15T02:05:45;13.40;99.90
29803;DHT22;16702;50.898;4.662;2024-02-15T02:08:33;13.50;99.90
29803;DHT22;16702;50.898;4.662;2024-02-15T02:11:48;13.50;99.90
29803;DHT22;16702;50.898;4.662;2024-02-15T02:14:48;13.50;99.90
29803;DHT22;16702;50.898;4.662;2024-02-15T02:18:16;13.50;99.90
29803;DHT22;16702;50.898;4.662;2024-02-15T02:21:33;13.50;99.90
29803;DHT22;16702;50.898;4.662;2024-02-15T02:24:34;13.50;99.90
29803;DHT22;16702;50.898;4.662;2024-02-15T02:27:21;13.50;99.90
29803;DHT22;16702;50.898;4.662;2024-02-15T02:30:11;13.50;99.90
29803;DHT22;16702;50.898;4.662;2024-02-15T02:33:02;13.50;99.90
29803;DHT22;16702;50.898;4.662;2024-02-15T02:35:57;13.50;99.90
29803;DHT22;16702;50.898;4.662;2024-02-15T02:38:52;13.50;99.90
29803;DHT22;16702;50.898;4.662;2024-02-15T02:42:19;13.50;99.90
29803;DHT22;16702;50.898;4.662;2024-02-15T02:45:07;13.50;99.90
29803;DHT22;16702;50.898;4.662;2024-02-15T02:48:03;13.50;99.90
29803;DHT22;16702;50.898;4.662;2024-02-15T02:51:59;13.40;99.90
29803;DHT22;16702;50.898;4.662;2024-02-15T02:54:54;13.50;99.90
29803;DHT22;16702;50.898;4.662;2024-02-15T02:57:25;13.50;99.90
29803;DHT22;16702;50.898;4.662;2024-02-15T03:00:02;13.50;99.90
29803;DHT22;16702;50.898;4.662;2024-02-15T03:03:06;13.60;99.90
29803;DHT22;16702;50.898;4.662;2024-02-15T03:06:11;13.40;99.90
29803;DHT22;16702;50.898;4.662;2024-02-15T03:09:52;13.50;99.90
29803;DHT22;16702;50.898;4.662;2024-02-15T03:12:27;13.50;99.90
29803;DHT22;16702;50.898;4.662;2024-02-15T03:15:14;13.50;99.90
29803;DHT22;16702;50.898;4.662;2024-02-15T03:18:34;13.50;99.90
29803;DHT22;16702;50.898;4.662;2024-02-15T03:21:27;13.50;99.90
29803;DHT22;16702;50.898;4.662;2024-02-15T03:24:40;13.50;99.90
29803;DHT22;16702;50.898;4.662;2024-02-15T03:27:47;13.50;99.90
29803;DHT22;16702;50.898;4.662;2024-02-15T03:30:59;13.50;99.90
29803;DHT22;16702;50.898;4.662;2024-02-15T03:34:07;13.50;99.90
29803;DHT22;16702;50.898;4.662;2024-02-15T03:36:47;13.50;99.90
29803;DHT22;16702;50.898;4.662;2024-02-15T03:39:52;13.40;99.90
29803;DHT22;16702;50.898;4.662;2024-02-15T03:45:10;13.50;99.90
29803;DHT22;16702;50.898;4.662;2024-02-15T03:46:10;13.50;99.90
29803;DHT22;16702;50.898;4.662;2024-02-15T03:49:12;13.50;99.90
29803;DHT22;16702;50.898;4.662;2024-02-15T03:52:02;13.50;99.90
29803;DHT22;16702;50.898;4.662;2024-02-15T03:55:06;13.50;99.90
29803;DHT22;16702;50.898;4.662;2024-02-15T03:58:01;13.50;99.90
29803;DHT22;16702;50.898;4.662;2024-02-15T04:00:44;13.50;99.90
29803;DHT22;16702;50.898;4.662;2024-02-15T04:03:44;13.50;99.90
29803;DHT22;16702;50.898;4.662;2024-02-15T04:06:57;13.50;99.90
29803;DHT22;16702;50.898;4.662;2024-02-15T04:09:43;13.40;99.90
29803;DHT22;16702;50.898;4.662;2024-02-15T04:12:43;13.40;99.90
29803;DHT22;16702;50.898;4.662;2024-02-15T04:15:34;13.50;99.90
29803;DHT22;16702;50.898;4.662;2024-02-15T04:18:29;13.40;99.90
29803;DHT22;16702;50.898;4.662;2024-02-15T04:21:36;13.50;99.90
29803;DHT22;16702;50.898;4.662;2024-02-15T04:24:24;13.50;99.90
29803;DHT22;16702;50.898;4.662;2024-02-15T04:27:11;13.40;99.90
29803;DHT22;16702;50.898;4.662;2024-02-15T04:30:17;13.50;99.90
29803;DHT22;16702;50.898;4.662;2024-02-15T04:35:09;13.50;99.90
29803;DHT22;16702;50.898;4.662;2024-02-15T04:36:11;13.40;99.90
29803;DHT22;16702;50.898;4.662;2024-02-15T04:39:05;13.50;99.90
29803;DHT22;16702;50.898;4.662;2024-02-15T04:42:53;13.40;99.90
29803;DHT22;16702;50.898;4.662;2024-02-15T04:45:04;13.50;99.90
29803;DHT22;16702;50.898;4.662;2024-02-15T04:48:07;13.40;99.90
29803;DHT22;16702;50.898;4.662;2024-02-15T04:51:31;13.40;99.90
29803;DHT22;16702;50.898;4.662;2024-02-15T04:54:09;13.40;99.90
29803;DHT22;16702;50.898;4.662;2024-02-15T04:59:24;13.40;99.90
29803;DHT22;16702;50.898;4.662;2024-02-15T05:00:14;13.40;99.90
29803;DHT22;16702;50.898;4.662;2024-02-15T05:03:04;13.40;99.90
29803;DHT22;16702;50.898;4.662;2024-02-15T05:05:48;13.30;99.90
29803;DHT22;16702;50.898;4.662;2024-02-15T05:08:40;13.30;99.90
29803;DHT22;16702;50.898;4.662;2024-02-15T05:11:25;13.30;99.90
29803;DHT22;16702;50.898;4.662;2024-02-15T05:14:26;13.30;99.90
29803;DHT22;16702;50.898;4.662;2024-02-15T05:18:14;13.30;99.90
29803;DHT22;16702;50.898;4.662;2024-02-15T05:20:48;13.30;99.90
29803;DHT22;16702;50.898;4.662;2024-02-15T05:23:34;13.30;99.90
29803;DHT22;16702;50.898;4.662;2024-02-15T05:26:41;13.30;99.90
29803;DHT22;16702;50.898;4.662;2024-02-15T05:29:37;13.20;99.90
29803;DHT22;16702;50.898;4.662;2024-02-15T05:32:31;13.30;99.90
29803;DHT22;16702;50.898;4.662;2024-02-15T05:35:44;13.30;99.90
29803;DHT22;16702;50.898;4.662;2024-02-15T05:41:04;13.30;99.90
29803;DHT22;16702;50.898;4.662;2024-02-15T05:41:49;13.40;99.90
29803;DHT22;16702;50.898;4.662;2024-02-15T05:44:47;13.40;99.90
29803;DHT22;16702;50.898;4.662;2024-02-15T05:47:48;13.30;99.90
29803;DHT22;16702;50.898;4.662;2024-02-15T05:50:48;13.40;99.90
29803;DHT22;16702;50.898;4.662;2024-02-15T05:53:57;13.40;99.90
29803;DHT22;16702;50.898;4.662;2024-02-15T05:56:52;13.30;99.90
29803;DHT22;16702;50.898;4.662;2024-02-15T05:59:53;13.40;99.90
29803;DHT22;16702;50.898;4.662;2024-02-15T06:02:50;13.30;99.90
29803;DHT22;16702;50.898;4.662;2024-02-15T06:05:48;13.30;99.90
29803;DHT22;16702;50.898;4.662;2024-02-15T06:08:22;13.40;99.90
29803;DHT22;16702;50.898;4.662;2024-02-15T06:11:11;13.40;99.90
29803;DHT22;16702;50.898;4.662;2024-02-15T06:14:09;13.40;99.90
29803;DHT22;16702;50.898;4.662;2024-02-15T06:16:52;13.40;99.90
29803;DHT22;16702;50.898;4.662;2024-02-15T06:19:57;13.30;99.90
29803;DHT22;16702;50.898;4.662;2024-02-15T06:26:09;13.30;99.90
29803;DHT22;16702;50.898;4.662;2024-02-15T06:29:33;13.30;99.90
29803;DHT22;16702;50.898;4.662;2024-02-15T06:32:44;13.40;99.90
29803;DHT22;16702;50.898;4.662;2024-02-15T06:35:47;13.30;99.90
29803;DHT22;16702;50.898;4.662;2024-02-15T06:39:02;13.30;99.90
29803;DHT22;16702;50.898;4.662;2024-02-15T06:42:17;13.40;99.90
29803;DHT22;16702;50.898;4.662;2024-02-15T06:45:16;13.30;99.90
29803;DHT22;16702;50.898;4.662;2024-02-15T06:48:06;13.40;99.90
29803;DHT22;16702;50.898;4.662;2024-02-15T06:50:49;13.40;99.90
29803;DHT22;16702;50.898;4.662;2024-02-15T06:53:24;13.30;99.90
29803;DHT22;16702;50.898;4.662;2024-02-15T06:56:14;13.40;99.90
29803;DHT22;16702;50.898;4.662;2024-02-15T07:02:33;13.30;99.90
29803;DHT22;16702;50.898;4.662;2024-02-15T07:05:27;13.30;99.90
29803;DHT22;16702;50.898;4.662;2024-02-15T07:08:42;13.30;99.90
29803;DHT22;16702;50.898;4.662;2024-02-15T07:11:43;13.20;99.90
29803;DHT22;16702;50.898;4.662;2024-02-15T07:15:19;13.20;99.90
29803;DHT22;16702;50.898;4.662;2024-02-15T07:17:53;13.20;99.90
29803;DHT22;16702;50.898;4.662;2024-02-15T07:20:55;13.20;99.90
29803;DHT22;16702;50.898;4.662;2024-02-15T07:24:14;13.20;99.90
29803;DHT22;16702;50.898;4.662;2024-02-15T07:27:29;13.20;99.90
29803;DHT22;16702;50.898;4.662;2024-02-15T07:31:04;13.20;99.90
29803;DHT22;16702;50.898;4.662;2024-02-15T07:34:02;13.20;99.90
29803;DHT22;16702;50.898;4.662;2024-02-15T07:37:02;13.20;99.90
29803;DHT22;16702;50.898;4.662;2024-02-15T07:39:38;13.20;99.90
29803;DHT22;16702;50.898;4.662;2024-02-15T07:42:26;13.20;99.90
29803;DHT22;16702;50.898;4.662;2024-02-15T07:45:31;13.20;99.90
29803;DHT22;16702;50.898;4.662;2024-02-15T07:48:21;13.20;99.90
29803;DHT22;16702;50.898;4.662;2024-02-15T07:51:08;13.20;99.90
29803;DHT22;16702;50.898;4.662;2024-02-15T07:54:15;13.20;99.90
29803;DHT22;16702;50.898;4.662;2024-02-15T07:57:19;13.20;99.90
29803;DHT22;16702;50.898;4.662;2024-02-15T08:00:20;13.20;99.90
29803;DHT22;16702;50.898;4.662;2024-02-15T08:03:33;13.20;99.90
29803;DHT22;16702;50.898;4.662;2024-02-15T08:06:17;13.30;99.90
29803;DHT22;16702;50.898;4.662;2024-02-15T08:09:51;13.20;99.90
29803;DHT22;16702;50.898;4.662;2024-02-15T08:12:42;13.30;99.90
29803;DHT22;16702;50.898;4.662;2024-02-15T08:15:40;13.30;99.90
29803;DHT22;16702;50.898;4.662;2024-02-15T08:18:41;13.30;99.90
29803;DHT22;16702;50.898;4.662;2024-02-15T08:21:30;13.30;99.90
29803;DHT22;16702;50.898;4.662;2024-02-15T08:24:43;13.30;99.90
29803;DHT22;16702;50.898;4.662;2024-02-15T08:27:49;13.40;99.90
29803;DHT22;16702;50.898;4.662;2024-02-15T08:33:00;13.40;99.90
29803;DHT22;16702;50.898;4.662;2024-02-15T08:34:01;13.40;99.90
29803;DHT22;16702;50.898;4.662;2024-02-15T08:37:21;13.40;99.90
29803;DHT22;16702;50.898;4.662;2024-02-15T08:40:22;13.40;99.90
29803;DHT22;16702;50.898;4.662;2024-02-15T08:43:14;13.40;99.90
29803;DHT22;16702;50.898;4.662;2024-02-15T08:46:20;13.40;99.90
29803;DHT22;16702;50.898;4.662;2024-02-15T08:49:04;13.50;99.90
29803;DHT22;16702;50.898;4.662;2024-02-15T08:51:54;13.50;99.90
29803;DHT22;16702;50.898;4.662;2024-02-15T08:54:47;13.60;99.90
29803;DHT22;16702;50.898;4.662;2024-02-15T08:57:41;13.60;99.90
29803;DHT22;16702;50.898;4.662;2024-02-15T09:00:48;13.70;99.90
29803;DHT22;16702;50.898;4.662;2024-02-15T09:03:31;13.70;99.90
29803;DHT22;16702;50.898;4.662;2024-02-15T09:06:34;13.70;99.90
29803;DHT22;16702;50.898;4.662;2024-02-15T09:09:25;13.70;99.90
29803;DHT22;16702;50.898;4.662;2024-02-15T09:12:29;13.80;99.90
29803;DHT22;16702;50.898;4.662;2024-02-15T09:15:17;13.80;99.90
29803;DHT22;16702;50.898;4.662;2024-02-15T09:18:26;13.80;99.90
29803;DHT22;16702;50.898;4.662;2024-02-15T09:21:45;13.80;99.90
29803;DHT22;16702;50.898;4.662;2024-02-15T09:24:27;13.90;99.90
29803;DHT22;16702;50.898;4.662;2024-02-15T09:27:42;13.90;99.90
29803;DHT22;16702;50.898;4.662;2024-02-15T09:30:19;13.90;99.90
29803;DHT22;16702;50.898;4.662;2024-02-15T09:32:59;14.00;99.90
29803;DHT22;16702;50.898;4.662;2024-02-15T09:36:06;14.00;99.90
29803;DHT22;16702;50.898;4.662;2024-02-15T09:39:24;14.00;99.90
29803;DHT22;16702;50.898;4.662;2024-02-15T09:43:08;14.10;99.90
29803;DHT22;16702;50.898;4.662;2024-02-15T09:45:41;14.10;99.90
29803;DHT22;16702;50.898;4.662;2024-02-15T09:49:02;14.20;99.90
29803;DHT22;16702;50.898;4.662;2024-02-15T09:51:57;14.20;99.90
29803;DHT22;16702;50.898;4.662;2024-02-15T09:54:56;14.30;99.90
29803;DHT22;16702;50.898;4.662;2024-02-15T09:57:52;14.30;99.90
29803;DHT22;16702;50.898;4.662;2024-02-15T10:00:42;14.40;99.90
29803;DHT22;16702;50.898;4.662;2024-02-15T10:04:02;14.40;99.90
29803;DHT22;16702;50.898;4.662;2024-02-15T10:06:50;14.50;99.90
29803;DHT22;16702;50.898;4.662;2024-02-15T10:09:34;14.50;99.90
29803;DHT22;16702;50.898;4.662;2024-02-15T10:12:37;14.60;99.90
29803;DHT22;16702;50.898;4.662;2024-02-15T10:15:38;14.60;99.90
29803;DHT22;16702;50.898;4.662;2024-02-15T10:18:43;14.70;99.90
29803;DHT22;16702;50.898;4.662;2024-02-15T10:22:36;14.70;99.90
29803;DHT22;16702;50.898;4.662;2024-02-15T10:25:53;14.80;99.90
29803;DHT22;16702;50.898;4.662;2024-02-15T10:29:10;14.80;99.90
29803;DHT22;16702;50.898;4.662;2024-02-15T10:32:13;14.90;99.90
29803;DHT22;16702;50.898;4.662;2024-02-15T10:34:57;14.80;99.90
29803;DHT22;16702;50.898;4.662;2024-02-15T10:38:11;14.90;99.90
29803;DHT22;16702;50.898;4.662;2024-02-15T10:43:11;15.00;99.90
29803;DHT22;16702;50.898;4.662;2024-02-15T10:46:24;15.00;99.90
29803;DHT22;16702;50.898;4.662;2024-02-15T10:47:22;15.10;99.90
29803;DHT22;16702;50.898;4.662;2024-02-15T10:50:04;15.10;99.90
29803;DHT22;16702;50.898;4.662;2024-02-15T10:53:23;15.10;99.90
29803;DHT22;16702;50.898;4.662;2024-02-15T10:56:14;15.20;99.90
29803;DHT22;16702;50.898;4.662;2024-02-15T10:59:18;15.30;99.90
29803;DHT22;16702;50.898;4.662;2024-02-15T11:02:29;15.40;99.90
29803;DHT22;16702;50.898;4.662;2024-02-15T11:05:20;15.50;99.90
29803;DHT22;16702;50.898;4.662;2024-02-15T11:10:42;15.60;99.90
29803;DHT22;16702;50.898;4.662;2024-02-15T11:15:01;15.80;99.90
29803;DHT22;16702;50.898;4.662;2024-02-15T11:17:59;15.70;99.90
29803;DHT22;16702;50.898;4.662;2024-02-15T11:20:58;15.70;99.90
29803;DHT22;16702;50.898;4.662;2024-02-15T11:23:35;15.70;99.90
29803;DHT22;16702;50.898;4.662;2024-02-15T11:26:44;15.70;99.90
29803;DHT22;16702;50.898;4.662;2024-02-15T11:30:04;15.70;99.90
29803;DHT22;16702;50.898;4.662;2024-02-15T11:32:58;15.60;99.90
29803;DHT22;16702;50.898;4.662;2024-02-15T11:36:52;15.70;99.90
29803;DHT22;16702;50.898;4.662;2024-02-15T11:39:19;15.70;99.90
29803;DHT22;16702;50.898;4.662;2024-02-15T11:42:27;15.60;99.90
29803;DHT22;16702;50.898;4.662;2024-02-15T11:45:12;15.70;99.90
29803;DHT22;16702;50.898;4.662;2024-02-15T11:48:17;15.70;99.90
29803;DHT22;16702;50.898;4.662;2024-02-15T11:52:29;15.70;99.90
29803;DHT22;16702;50.898;4.662;2024-02-15T11:54:20;15.70;99.90
29803;DHT22;16702;50.898;4.662;2024-02-15T11:57:08;15.80;99.90
29803;DHT22;16702;50.898;4.662;2024-02-15T12:04:30;15.90;99.90
29803;DHT22;16702;50.898;4.662;2024-02-15T12:10:14;15.90;99.90
29803;DHT22;16702;50.898;4.662;2024-02-15T12:11:04;15.90;99.90
29803;DHT22;16702;50.898;4.662;2024-02-15T12:14:11;15.90;99.90
29803;DHT22;16702;50.898;4.662;2024-02-15T12:17:05;16.00;99.90
29803;DHT22;16702;50.898;4.662;2024-02-15T12:20:11;16.00;99.90
29803;DHT22;16702;50.898;4.662;2024-02-15T12:23:00;16.10;99.90
29803;DHT22;16702;50.898;4.662;2024-02-15T12:25:41;16.10;99.90
29803;DHT22;16702;50.898;4.662;2024-02-15T12:28:30;16.10;99.90
29803;DHT22;16702;50.898;4.662;2024-02-15T12:31:32;16.10;99.90
29803;DHT22;16702;50.898;4.662;2024-02-15T12:34:30;16.10;99.90
29803;DHT22;16702;50.898;4.662;2024-02-15T12:37:23;16.10;99.90
29803;DHT22;16702;50.898;4.662;2024-02-15T12:40:31;16.00;99.90
29803;DHT22;16702;50.898;4.662;2024-02-15T12:43:42;16.00;99.90
29803;DHT22;16702;50.898;4.662;2024-02-15T12:46:35;16.00;99.90
29803;DHT22;16702;50.898;4.662;2024-02-15T12:49:30;16.10;99.90
29803;DHT22;16702;50.898;4.662;2024-02-15T12:55:30;16.10;99.90
29803;DHT22;16702;50.898;4.662;2024-02-15T12:58:32;16.10;99.90
29803;DHT22;16702;50.898;4.662;2024-02-15T13:01:17;16.20;99.90
29803;DHT22;16702;50.898;4.662;2024-02-15T13:03:51;16.20;99.90
29803;DHT22;16702;50.898;4.662;2024-02-15T13:09:42;16.30;99.90
29803;DHT22;16702;50.898;4.662;2024-02-15T13:12:28;16.40;99.90
29803;DHT22;16702;50.898;4.662;2024-02-15T13:15:26;16.40;99.90
29803;DHT22;16702;50.898;4.662;2024-02-15T13:18:40;16.40;99.90
29803;DHT22;16702;50.898;4.662;2024-02-15T13:21:41;16.50;99.90
29803;DHT22;16702;50.898;4.662;2024-02-15T13:24:39;16.50;99.90
29803;DHT22;16702;50.898;4.662;2024-02-15T13:27:34;16.50;99.90
29803;DHT22;16702;50.898;4.662;2024-02-15T13:30:31;16.50;99.90
29803;DHT22;16702;50.898;4.662;2024-02-15T13:33:57;16.50;99.90
29803;DHT22;16702;50.898;4.662;2024-02-15T13:36:38;16.60;99.90
29803;DHT22;16702;50.898;4.662;2024-02-15T13:39:29;16.70;99.90
29803;DHT22;16702;50.898;4.662;2024-02-15T13:43:03;16.90;99.90
29803;DHT22;16702;50.898;4.662;2024-02-15T13:46:16;17.10;99.90
29803;DHT22;16702;50.898;4.662;2024-02-15T13:49:06;17.00;99.90
29803;DHT22;16702;50.898;4.662;2024-02-15T13:52:02;17.10;99.90
29803;DHT22;16702;50.898;4.662;2024-02-15T13:54:48;17.10;99.90
29803;DHT22;16702;50.898;4.662;2024-02-15T13:58:00;17.20;99.90
29803;DHT22;16702;50.898;4.662;2024-02-15T14:01:05;17.10;99.90
29803;DHT22;16702;50.898;4.662;2024-02-15T14:04:03;17.10;99.90
29803;DHT22;16702;50.898;4.662;2024-02-15T14:07:04;17.20;99.90
29803;DHT22;16702;50.898;4.662;2024-02-15T14:10:25;17.10;99.90
29803;DHT22;16702;50.898;4.662;2024-02-15T14:13:23;17.10;99.90
29803;DHT22;16702;50.898;4.662;2024-02-15T14:16:21;17.10;99.90
29803;DHT22;16702;50.898;4.662;2024-02-15T14:19:23;17.00;99.90
29803;DHT22;16702;50.898;4.662;2024-02-15T14:22:08;17.10;99.90
29803;DHT22;16702;50.898;4.662;2024-02-15T14:24:52;17.10;99.90
29803;DHT22;16702;50.898;4.662;2024-02-15T14:27:48;17.10;99.90
29803;DHT22;16702;50.898;4.662;2024-02-15T14:30:39;17.10;99.90
29803;DHT22;16702;50.898;4.662;2024-02-15T14:33:53;17.00;99.90
29803;DHT22;16702;50.898;4.662;2024-02-15T14:36:58;17.00;99.90
29803;DHT22;16702;50.898;4.662;2024-02-15T14:39:47;17.00;99.90
29803;DHT22;16702;50.898;4.662;2024-02-15T14:42:24;16.90;99.90
29803;DHT22;16702;50.898;4.662;2024-02-15T14:45:27;16.90;99.90
29803;DHT22;16702;50.898;4.662;2024-02-15T14:48:36;16.90;99.90
29803;DHT22;16702;50.898;4.662;2024-02-15T14:51:24;17.00;99.90
29803;DHT22;16702;50.898;4.662;2024-02-15T14:54:27;16.90;99.90
29803;DHT22;16702;50.898;4.662;2024-02-15T14:57:21;16.80;99.90
29803;DHT22;16702;50.898;4.662;2024-02-15T15:00:36;17.00;99.90
29803;DHT22;16702;50.898;4.662;2024-02-15T15:03:37;16.90;99.90
29803;DHT22;16702;50.898;4.662;2024-02-15T15:06:50;16.80;99.90
29803;DHT22;16702;50.898;4.662;2024-02-15T15:11:55;16.90;99.90
29803;DHT22;16702;50.898;4.662;2024-02-15T15:14:37;16.80;99.90
29803;DHT22;16702;50.898;4.662;2024-02-15T15:16:24;16.80;99.90
29803;DHT22;16702;50.898;4.662;2024-02-15T15:19:19;16.80;99.90
29803;DHT22;16702;50.898;4.662;2024-02-15T15:22:25;16.70;99.90
29803;DHT22;16702;50.898;4.662;2024-02-15T15:25:23;16.70;99.90
29803;DHT22;16702;50.898;4.662;2024-02-15T15:28:29;16.70;99.90
29803;DHT22;16702;50.898;4.662;2024-02-15T15:31:12;16.70;99.90
29803;DHT22;16702;50.898;4.662;2024-02-15T15:34:25;16.70;99.90
29803;DHT22;16702;50.898;4.662;2024-02-15T15:37:30;16.60;99.90
29803;DHT22;16702;50.898;4.662;2024-02-15T15:40:18;16.60;99.90
29803;DHT22;16702;50.898;4.662;2024-02-15T15:43:42;16.60;99.90
29803;DHT22;16702;50.898;4.662;2024-02-15T15:48:33;16.60;99.90
29803;DHT22;16702;50.898;4.662;2024-02-15T15:49:50;16.60;99.90
29803;DHT22;16702;50.898;4.662;2024-02-15T15:52:40;16.60;99.90
29803;DHT22;16702;50.898;4.662;2024-02-15T15:55:20;16.50;99.90
29803;DHT22;16702;50.898;4.662;2024-02-15T15:58:36;16.50;99.90
29803;DHT22;16702;50.898;4.662;2024-02-15T16:02:53;16.60;99.90
29803;DHT22;16702;50.898;4.662;2024-02-15T16:04:46;16.60;99.90
29803;DHT22;16702;50.898;4.662;2024-02-15T16:07:29;16.50;99.90
29803;DHT22;16702;50.898;4.662;2024-02-15T16:10:16;16.50;99.90
29803;DHT22;16702;50.898;4.662;2024-02-15T16:13:09;16.40;99.90
29803;DHT22;16702;50.898;4.662;2024-02-15T16:15:56;16.40;99.90
29803;DHT22;16702;50.898;4.662;2024-02-15T16:18:44;16.30;99.90
29803;DHT22;16702;50.898;4.662;2024-02-15T16:21:28;16.30;99.90
29803;DHT22;16702;50.898;4.662;2024-02-15T16:24:42;16.30;99.90
29803;DHT22;16702;50.898;4.662;2024-02-15T16:27:22;16.30;99.90
29803;DHT22;16702;50.898;4.662;2024-02-15T16:30:24;16.30;99.90
29803;DHT22;16702;50.898;4.662;2024-02-15T16:33:54;16.20;99.90
29803;DHT22;16702;50.898;4.662;2024-02-15T16:36:49;16.10;99.90
29803;DHT22;16702;50.898;4.662;2024-02-15T16:39:16;16.00;99.90
29803;DHT22;16702;50.898;4.662;2024-02-15T16:42:16;16.10;99.90
29803;DHT22;16702;50.898;4.662;2024-02-15T16:44:50;15.90;99.90
29803;DHT22;16702;50.898;4.662;2024-02-15T16:47:39;15.90;99.90
29803;DHT22;16702;50.898;4.662;2024-02-15T16:50:37;15.80;99.90
29803;DHT22;16702;50.898;4.662;2024-02-15T16:53:11;15.80;99.90
29803;DHT22;16702;50.898;4.662;2024-02-15T16:56:14;15.80;99.90
29803;DHT22;16702;50.898;4.662;2024-02-15T16:59:09;15.80;99.90
29803;DHT22;16702;50.898;4.662;2024-02-15T17:02:08;15.80;99.90
29803;DHT22;16702;50.898;4.662;2024-02-15T17:05:03;15.70;99.90
29803;DHT22;16702;50.898;4.662;2024-02-15T17:07:48;15.80;99.90
29803;DHT22;16702;50.898;4.662;2024-02-15T17:10:30;15.70;99.90
29803;DHT22;16702;50.898;4.662;2024-02-15T17:13:45;15.70;99.90
29803;DHT22;16702;50.898;4.662;2024-02-15T17:16:43;15.70;99.90
29803;DHT22;16702;50.898;4.662;2024-02-15T17:20:56;15.70;99.90
29803;DHT22;16702;50.898;4.662;2024-02-15T17:23:04;15.70;99.90
29803;DHT22;16702;50.898;4.662;2024-02-15T17:25:42;15.70;99.90
29803;DHT22;16702;50.898;4.662;2024-02-15T17:28:26;15.70;99.90
29803;DHT22;16702;50.898;4.662;2024-02-15T17:31:03;15.70;99.90
29803;DHT22;16702;50.898;4.662;2024-02-15T17:33:56;15.60;99.90
29803;DHT22;16702;50.898;4.662;2024-02-15T17:36:55;15.60;99.90
29803;DHT22;16702;50.898;4.662;2024-02-15T17:40:01;15.70;99.90
29803;DHT22;16702;50.898;4.662;2024-02-15T17:43:15;15.60;99.90
29803;DHT22;16702;50.898;4.662;2024-02-15T17:45:54;15.60;99.90
29803;DHT22;16702;50.898;4.662;2024-02-15T17:52:03;15.60;99.90
29803;DHT22;16702;50.898;4.662;2024-02-15T17:55:39;15.70;99.90
29803;DHT22;16702;50.898;4.662;2024-02-15T17:59:46;15.60;99.90
29803;DHT22;16702;50.898;4.662;2024-02-15T18:04:39;15.60;99.90
29803;DHT22;16702;50.898;4.662;2024-02-15T18:07:01;15.60;99.90
29803;DHT22;16702;50.898;4.662;2024-02-15T18:10:44;15.60;99.90
29803;DHT22;16702;50.898;4.662;2024-02-15T18:14:30;15.60;99.90
29803;DHT22;16702;50.898;4.662;2024-02-15T18:17:57;15.60;99.90
29803;DHT22;16702;50.898;4.662;2024-02-15T18:21:18;15.50;99.90
29803;DHT22;16702;50.898;4.662;2024-02-15T18:24:25;15.50;99.90
29803;DHT22;16702;50.898;4.662;2024-02-15T18:27:28;15.50;99.90
29803;DHT22;16702;50.898;4.662;2024-02-15T18:30:32;15.50;99.90
29803;DHT22;16702;50.898;4.662;2024-02-15T18:35:37;15.50;99.90
29803;DHT22;16702;50.898;4.662;2024-02-15T18:36:32;15.40;99.90
29803;DHT22;16702;50.898;4.662;2024-02-15T18:39:28;15.40;99.90
29803;DHT22;16702;50.898;4.662;2024-02-15T18:42:06;15.50;99.90
29803;DHT22;16702;50.898;4.662;2024-02-15T18:44:52;15.40;99.90
29803;DHT22;16702;50.898;4.662;2024-02-15T18:48:29;15.40;99.90
29803;DHT22;16702;50.898;4.662;2024-02-15T18:51:13;15.40;99.90
29803;DHT22;16702;50.898;4.662;2024-02-15T18:54:15;15.40;99.90
29803;DHT22;16702;50.898;4.662;2024-02-15T18:57:18;15.30;99.90
29803;DHT22;16702;50.898;4.662;2024-02-15T19:00:11;15.40;99.90
29803;DHT22;16702;50.898;4.662;2024-02-15T19:03:25;15.30;99.90
29803;DHT22;16702;50.898;4.662;2024-02-15T19:06:21;15.30;99.90
29803;DHT22;16702;50.898;4.662;2024-02-15T19:09:10;15.30;99.90
29803;DHT22;16702;50.898;4.662;2024-02-15T19:12:06;15.30;99.90
29803;DHT22;16702;50.898;4.662;2024-02-15T19:14:49;15.40;99.90
29803;DHT22;16702;50.898;4.662;2024-02-15T19:17:36;15.30;99.90
29803;DHT22;16702;50.898;4.662;2024-02-15T19:20:37;15.30;99.90